Time;durP1;ratioP1;P1;durP2;ratioP2;P2;SDS_P1;SDS_P2;PMS_P1;PMS_P2;Temp;Humidity;BMP_temperature;BMP_pressure;BME280_temperature;BME280_humidity;BME280_pressure;Samples;Min_cycle;Max_cycle;Signal;HPM_P1;HPM_P2
2023/03/10 00:01:12;;;;;;;14.13;6.50;;;1.80;99.90;;;;;;5009995;28;20164;-83
2023/03/10 00:03:39;;;;;;;15.13;6.50;;;1.80;99.90;;;;;;5009857;28;20124;-84
2023/03/10 00:06:05;;;;;;;12.93;6.13;;;1.80;99.90;;;;;;5011653;28;20447;-83
2023/03/10 00:08:31;;;;;;;11.70;5.88;;;1.80;99.90;;;;;;5008739;28;20037;-85
2023/03/10 00:10:56;;;;;;;13.57;5.97;;;1.80;99.90;;;;;;5009278;28;20037;-81
2023/03/10 00:13:22;;;;;;;13.77;6.37;;;1.80;99.90;;;;;;5009642;28;20038;-84
2023/03/10 00:15:48;;;;;;;11.00;5.23;;;1.80;99.90;;;;;;4993165;28;20508;-82
2023/03/10 00:18:14;;;;;;;13.93;6.38;;;1.80;99.90;;;;;;4993671;28;20205;-82
2023/03/10 00:20:40;;;;;;;15.60;6.43;;;1.80;99.90;;;;;;5006238;28;20137;-83
2023/03/10 00:23:08;;;;;;;10.50;5.10;;;1.80;99.90;;;;;;5009619;28;20030;-83
2023/03/10 00:25:34;;;;;;;12.02;5.20;;;1.80;99.90;;;;;;5007272;28;20037;-83
2023/03/10 00:27:59;;;;;;;10.80;5.63;;;1.80;99.90;;;;;;5008436;28;20029;-83
2023/03/10 00:30:25;;;;;;;13.20;6.37;;;1.70;99.90;;;;;;4991321;28;20073;-83
2023/03/10 00:32:53;;;;;;;9.60;4.60;;;1.90;99.90;;;;;;5004634;28;20179;-83
2023/03/10 00:35:24;;;;;;;11.93;4.95;;;1.80;99.90;;;;;;5007045;28;20044;-83
2023/03/10 00:37:50;;;;;;;11.45;5.50;;;1.80;99.90;;;;;;5006829;28;20046;-83
2023/03/10 00:40:16;;;;;;;13.57;5.93;;;1.80;99.90;;;;;;5009361;28;20037;-83
2023/03/10 00:42:43;;;;;;;11.75;5.75;;;1.80;99.90;;;;;;5002222;28;20138;-83
2023/03/10 00:45:09;;;;;;;;;;;1.80;99.90;;;;;;4986354;28;20095;-82
2023/03/10 00:47:35;;;;;;;13.10;5.47;;;1.90;99.90;;;;;;5008539;28;19925;-83
2023/03/10 00:50:01;;;;;;;12.87;6.03;;;1.80;99.90;;;;;;5008208;28;20048;-83
2023/03/10 00:52:30;;;;;;;11.95;5.60;;;1.80;99.90;;;;;;5007628;28;20042;-83
2023/03/10 00:55:01;;;;;;;13.48;5.80;;;1.80;99.90;;;;;;5006503;28;20144;-83
2023/03/10 00:57:26;;;;;;;10.13;4.88;;;1.80;99.90;;;;;;5007992;28;20540;-84
2023/03/10 00:59:52;;;;;;;11.30;5.20;;;1.80;99.90;;;;;;5005504;28;20076;-83
2023/03/10 01:02:19;;;;;;;11.83;5.60;;;1.80;99.90;;;;;;4995435;28;20037;-83
2023/03/10 01:04:45;;;;;;;10.80;5.40;;;1.80;99.90;;;;;;5003767;28;20042;-82
2023/03/10 01:07:11;;;;;;;;;;;1.70;99.90;;;;;;5003707;28;20327;-83
2023/03/10 01:09:37;;;;;;;13.27;6.25;;;1.80;99.90;;;;;;5006047;28;19922;-83
2023/03/10 01:12:02;;;;;;;13.63;6.73;;;1.80;99.90;;;;;;5004841;28;20557;-83
2023/03/10 01:14:30;;;;;;;16.30;7.43;;;1.80;99.90;;;;;;5006701;28;20049;-84
2023/03/10 01:16:58;;;;;;;15.88;6.57;;;1.80;99.90;;;;;;5003781;28;20056;-82
2023/03/10 01:19:24;;;;;;;15.73;7.18;;;1.80;99.90;;;;;;5004959;28;20110;-83
2023/03/10 01:21:49;;;;;;;15.30;7.00;;;1.80;99.90;;;;;;5004943;28;20128;-83
2023/03/10 01:24:18;;;;;;;15.40;7.30;;;1.80;99.90;;;;;;5001268;28;20047;-84
2023/03/10 01:26:44;;;;;;;15.30;7.03;;;1.80;99.90;;;;;;5025296;28;20038;-85
2023/03/10 01:29:09;;;;;;;16.60;6.97;;;1.80;99.90;;;;;;5006268;28;20045;-82
2023/03/10 01:31:35;;;;;;;16.50;7.93;;;1.80;99.90;;;;;;5001226;28;20218;-82
2023/03/10 01:34:01;;;;;;;14.40;6.73;;;1.80;99.90;;;;;;5007015;28;20048;-83
2023/03/10 01:36:27;;;;;;;15.50;7.37;;;1.80;99.90;;;;;;5004787;28;20038;-85
2023/03/10 01:38:54;;;;;;;15.53;7.37;;;1.80;99.90;;;;;;4983237;28;20037;-82
2023/03/10 01:41:23;;;;;;;16.63;7.25;;;1.80;99.90;;;;;;5004542;28;20034;-83
2023/03/10 01:43:53;;;;;;;18.20;7.80;;;1.80;99.90;;;;;;5003056;28;20053;-84
2023/03/10 01:46:51;;;;;;;19.13;8.73;;;1.80;99.90;;;;;;5005285;28;20269;-82
2023/03/10 01:49:23;;;;;;;;;;;1.90;99.90;;;;;;4990755;28;20038;-84
2023/03/10 01:52:25;;;;;;;15.77;7.50;;;1.90;99.90;;;;;;4989862;28;20384;-84
2023/03/10 01:54:57;;;;;;;15.65;7.43;;;1.90;99.90;;;;;;4945775;28;20102;-84
2023/03/10 01:57:28;;;;;;;16.73;7.40;;;1.90;99.90;;;;;;4981781;28;20050;-84
2023/03/10 01:59:55;;;;;;;14.57;7.18;;;1.90;99.90;;;;;;4995053;28;20512;-83
2023/03/10 02:02:23;;;;;;;15.63;7.13;;;1.90;99.90;;;;;;4994075;28;20033;-83
2023/03/10 02:04:51;;;;;;;13.27;7.25;;;1.90;99.90;;;;;;5010277;28;20073;-84
2023/03/10 02:07:22;;;;;;;11.88;6.00;;;1.90;99.90;;;;;;5007452;28;20192;-83
2023/03/10 02:09:50;;;;;;;14.30;6.57;;;1.90;99.90;;;;;;5011028;28;20045;-84
2023/03/10 02:12:19;;;;;;;12.77;5.80;;;1.90;99.90;;;;;;5011791;28;20128;-84
2023/03/10 02:14:46;;;;;;;13.70;6.68;;;1.90;99.90;;;;;;5009864;28;20061;-84
2023/03/10 02:17:16;;;;;;;11.95;5.57;;;1.90;99.90;;;;;;5012088;28;20037;-83
2023/03/10 02:20:10;;;;;;;11.15;5.10;;;1.90;99.90;;;;;;5009379;28;20046;-82
2023/03/10 02:22:37;;;;;;;11.15;5.22;;;1.90;99.90;;;;;;5026590;28;20047;-85
2023/03/10 02:25:11;;;;;;;11.43;5.43;;;1.80;99.90;;;;;;5004733;28;20113;-84
2023/03/10 02:27:38;;;;;;;9.57;4.72;;;1.80;99.90;;;;;;5010829;28;20561;-85
2023/03/10 02:30:19;;;;;;;10.68;4.57;;;1.80;99.90;;;;;;5000524;28;20059;-83
2023/03/10 02:32:49;;;;;;;10.80;4.63;;;1.80;99.90;;;;;;5006614;28;20085;-84
2023/03/10 02:35:15;;;;;;;11.40;5.18;;;1.80;99.90;;;;;;5007766;28;20949;-83
2023/03/10 02:37:44;;;;;;;13.40;5.57;;;1.80;99.90;;;;;;5007568;28;20057;-84
2023/03/10 02:40:32;;;;;;;14.10;5.80;;;1.80;99.90;;;;;;5008063;28;20042;-84
2023/03/10 02:43:13;;;;;;;10.82;5.43;;;1.80;99.90;;;;;;5024425;28;20041;-85
2023/03/10 02:45:41;;;;;;;10.05;4.72;;;1.70;99.90;;;;;;5011632;28;20094;-81
2023/03/10 02:48:14;;;;;;;11.57;5.30;;;1.80;99.90;;;;;;4991501;28;20033;-83
2023/03/10 02:50:42;;;;;;;10.95;5.72;;;1.70;99.90;;;;;;5005331;28;20045;-83
2023/03/10 02:53:16;;;;;;;10.88;5.20;;;1.70;99.90;;;;;;5009244;28;20437;-81
2023/03/10 02:55:45;;;;;;;11.60;5.50;;;1.70;99.90;;;;;;5027150;28;20038;-84
2023/03/10 02:58:11;;;;;;;12.93;6.07;;;1.70;99.90;;;;;;5026352;28;20492;-85
2023/03/10 03:00:38;;;;;;;10.65;5.40;;;1.60;99.90;;;;;;5007134;28;20038;-82
2023/03/10 03:03:05;;;;;;;13.75;5.80;;;1.50;99.90;;;;;;5011619;28;20053;-84
2023/03/10 03:05:30;;;;;;;;;;;1.60;99.90;;;;;;5009641;28;20232;-85
2023/03/10 03:07:56;;;;;;;14.25;6.15;;;1.60;99.90;;;;;;5008963;28;20032;-84
2023/03/10 03:10:22;;;;;;;12.67;5.50;;;1.70;99.90;;;;;;5012139;28;20049;-84
2023/03/10 03:12:49;;;;;;;12.50;6.23;;;1.60;99.90;;;;;;5009251;28;20042;-84
2023/03/10 03:15:15;;;;;;;15.32;5.93;;;1.60;99.90;;;;;;5025332;28;20193;-83
2023/03/10 03:17:41;;;;;;;13.20;6.05;;;1.70;99.90;;;;;;5010141;28;20092;-86
2023/03/10 03:20:14;;;;;;;9.70;5.30;;;1.60;99.90;;;;;;5008349;28;20053;-84
2023/03/10 03:22:44;;;;;;;11.95;5.43;;;1.60;99.90;;;;;;5031170;28;20049;-85
2023/03/10 03:25:12;;;;;;;11.88;5.70;;;1.60;99.90;;;;;;4986477;28;20137;-85
2023/03/10 03:27:38;;;;;;;10.95;5.65;;;1.60;99.90;;;;;;5013360;28;20572;-86
2023/03/10 03:30:14;;;;;;;11.55;5.40;;;1.60;99.90;;;;;;5009196;28;20052;-84
2023/03/10 03:32:40;;;;;;;12.17;5.93;;;1.50;99.90;;;;;;5004234;28;20045;-85
2023/03/10 03:35:23;;;;;;;13.48;5.63;;;1.60;99.90;;;;;;5012832;28;20302;-84
2023/03/10 03:37:54;;;;;;;11.90;5.45;;;1.50;99.90;;;;;;5010650;28;20052;-84
2023/03/10 03:40:20;;;;;;;9.93;5.25;;;1.50;99.90;;;;;;5009456;28;20070;-84
2023/03/10 03:42:50;;;;;;;14.63;7.10;;;1.50;99.90;;;;;;5009267;28;20049;-84
2023/03/10 03:45:22;;;;;;;13.85;6.35;;;1.50;99.90;;;;;;5008603;28;20574;-83
2023/03/10 03:47:51;;;;;;;11.48;5.35;;;1.50;99.90;;;;;;5013668;28;20053;-84
2023/03/10 03:50:20;;;;;;;14.18;6.25;;;1.50;99.90;;;;;;5010981;28;20042;-85
2023/03/10 03:52:48;;;;;;;11.32;4.97;;;1.40;99.90;;;;;;5004162;28;20054;-87
2023/03/10 03:55:19;;;;;;;12.25;5.43;;;1.40;99.90;;;;;;5029902;28;20037;-84
2023/03/10 03:57:46;;;;;;;14.18;5.95;;;1.40;99.90;;;;;;5027460;28;20041;-83
2023/03/10 04:00:13;;;;;;;;;;;1.40;99.90;;;;;;5028122;28;20120;-85
2023/03/10 04:02:39;;;;;;;;;;;1.40;99.90;;;;;;5011291;28;19925;-85
2023/03/10 04:05:06;;;;;;;11.70;6.03;;;1.40;99.90;;;;;;5006059;28;19951;-84
2023/03/10 04:07:38;;;;;;;14.55;6.47;;;1.30;99.90;;;;;;5007888;28;20046;-85
2023/03/10 04:10:04;;;;;;;15.20;7.15;;;1.30;99.90;;;;;;5015228;28;20296;-84
2023/03/10 04:12:33;;;;;;;15.23;6.40;;;1.40;99.90;;;;;;5011794;28;20052;-84
2023/03/10 04:14:59;;;;;;;14.27;6.95;;;1.30;99.90;;;;;;5010405;28;20050;-85
2023/03/10 04:17:24;;;;;;;17.80;8.40;;;1.40;99.90;;;;;;5006397;28;20037;-83
2023/03/10 04:19:50;;;;;;;17.83;8.13;;;1.30;99.90;;;;;;5002145;28;20743;-83
2023/03/10 04:22:16;;;;;;;14.13;7.47;;;1.30;99.90;;;;;;5006486;28;20076;-83
2023/03/10 04:24:41;;;;;;;18.43;7.17;;;1.30;99.90;;;;;;5005777;28;20041;-83
2023/03/10 04:27:08;;;;;;;16.87;6.63;;;1.30;99.90;;;;;;5005795;28;20580;-84
2023/03/10 04:29:35;;;;;;;14.07;7.20;;;1.30;99.90;;;;;;5003020;28;20053;-84
2023/03/10 04:32:01;;;;;;;16.60;7.03;;;1.30;99.90;;;;;;4999349;28;20093;-84
2023/03/10 04:34:26;;;;;;;16.97;7.63;;;1.30;99.90;;;;;;5003250;28;20482;-84
2023/03/10 04:36:52;;;;;;;12.73;6.63;;;1.30;99.90;;;;;;5001401;28;20329;-81
2023/03/10 04:39:18;;;;;;;15.97;7.30;;;1.30;99.90;;;;;;5004650;28;20038;-84
2023/03/10 04:41:46;;;;;;;19.37;7.53;;;1.30;99.90;;;;;;5001948;28;20038;-84
2023/03/10 04:44:14;;;;;;;14.98;6.95;;;1.30;99.90;;;;;;5025931;28;20033;-83
2023/03/10 04:46:39;;;;;;;16.75;7.82;;;1.30;99.90;;;;;;4987831;28;20037;-84
2023/03/10 04:49:05;;;;;;;14.97;7.30;;;1.30;99.90;;;;;;5004911;28;20436;-83
2023/03/10 04:51:31;;;;;;;17.33;7.63;;;1.40;99.90;;;;;;4999261;28;20044;-83
2023/03/10 04:53:56;;;;;;;16.00;7.13;;;1.40;99.90;;;;;;5002515;28;20066;-84
2023/03/10 04:56:23;;;;;;;17.47;8.53;;;1.30;99.90;;;;;;5003519;28;20037;-83
2023/03/10 04:58:49;;;;;;;17.92;7.35;;;1.30;99.90;;;;;;5005319;28;20071;-84
2023/03/10 05:01:15;;;;;;;17.63;7.17;;;1.30;99.90;;;;;;5010735;28;20493;-83
2023/03/10 05:03:41;;;;;;;17.93;7.87;;;1.30;99.90;;;;;;5003408;28;20089;-84
2023/03/10 05:06:16;;;;;;;14.77;7.03;;;1.30;99.90;;;;;;5005886;28;20046;-83
2023/03/10 05:08:41;;;;;;;19.40;8.70;;;1.30;99.90;;;;;;4989553;28;20044;-83
2023/03/10 05:11:08;;;;;;;16.97;8.00;;;1.30;99.90;;;;;;5005503;28;20200;-82
2023/03/10 05:13:34;;;;;;;17.83;8.32;;;1.30;99.90;;;;;;5002946;28;20049;-84
2023/03/10 05:16:00;;;;;;;16.35;7.68;;;1.30;99.90;;;;;;5004730;28;20116;-84
2023/03/10 05:18:25;;;;;;;17.47;8.27;;;1.30;99.90;;;;;;4991736;28;21975;-84
2023/03/10 05:20:56;;;;;;;15.73;7.83;;;1.30;99.90;;;;;;5005669;28;20042;-85
2023/03/10 05:23:22;;;;;;;16.88;7.88;;;1.20;99.90;;;;;;4990398;28;20040;-86
2023/03/10 05:25:54;;;;;;;16.70;7.95;;;1.20;99.90;;;;;;4982836;28;20207;-85
2023/03/10 05:28:19;;;;;;;18.63;7.97;;;1.20;99.90;;;;;;5004660;28;20057;-84
2023/03/10 05:30:45;;;;;;;21.30;8.30;;;1.20;99.90;;;;;;5006257;28;20045;-84
2023/03/10 05:33:11;;;;;;;21.97;9.33;;;1.20;99.90;;;;;;5002911;28;20432;-86
2023/03/10 05:35:37;;;;;;;19.00;8.50;;;1.20;99.90;;;;;;5007091;28;20454;-85
2023/03/10 05:38:05;;;;;;;;;;;1.20;99.90;;;;;;5001307;28;20125;-85
2023/03/10 05:40:33;;;;;;;20.98;8.43;;;1.20;99.90;;;;;;5005731;28;19918;-84
2023/03/10 05:43:00;;;;;;;21.25;8.30;;;1.20;99.90;;;;;;5006204;28;20049;-84
2023/03/10 05:45:26;;;;;;;;;;;1.20;99.90;;;;;;5001811;28;20178;-84
2023/03/10 05:47:51;;;;;;;23.35;9.80;;;1.20;99.90;;;;;;5014950;28;19921;-84
2023/03/10 05:50:20;;;;;;;24.13;10.13;;;1.20;99.90;;;;;;5009103;28;20459;-84
2023/03/10 05:52:45;;;;;;;25.88;9.70;;;1.20;99.90;;;;;;4999852;28;20073;-83
2023/03/10 05:55:17;;;;;;;22.83;9.23;;;1.10;99.90;;;;;;4983611;28;20041;-84
2023/03/10 05:57:43;;;;;;;24.35;9.95;;;1.10;99.90;;;;;;5003286;28;20405;-83
2023/03/10 06:00:10;;;;;;;25.27;9.27;;;1.10;99.90;;;;;;5005180;28;20468;-83
2023/03/10 06:02:37;;;;;;;24.23;9.57;;;1.10;99.90;;;;;;5001997;28;20497;-84
2023/03/10 06:05:05;;;;;;;25.70;10.65;;;1.10;99.90;;;;;;5005934;28;20505;-85
2023/03/10 06:07:32;;;;;;;26.50;10.95;;;1.10;99.90;;;;;;5005008;28;20113;-84
2023/03/10 06:09:57;;;;;;;26.30;11.50;;;1.10;99.90;;;;;;5005478;28;20048;-86
2023/03/10 06:12:23;;;;;;;23.67;10.57;;;1.10;99.90;;;;;;5011105;28;20137;-85
2023/03/10 06:14:49;;;;;;;25.67;11.33;;;1.10;99.90;;;;;;5022397;28;20251;-84
2023/03/10 06:17:15;;;;;;;26.80;10.23;;;1.10;99.90;;;;;;5007034;28;20135;-82
2023/03/10 06:19:40;;;;;;;23.07;10.17;;;1.10;99.90;;;;;;5006056;28;20042;-84
2023/03/10 06:22:06;;;;;;;24.10;10.63;;;1.10;99.90;;;;;;5008058;28;20049;-84
2023/03/10 06:24:32;;;;;;;23.83;8.80;;;1.10;99.90;;;;;;4997982;28;20042;-86
2023/03/10 06:26:57;;;;;;;21.13;9.27;;;1.20;99.90;;;;;;5009609;28;20121;-84
2023/03/10 06:29:23;;;;;;;22.20;10.13;;;1.10;99.90;;;;;;5003567;28;20056;-86
2023/03/10 06:31:49;;;;;;;23.00;9.97;;;1.10;99.90;;;;;;4986918;28;20593;-83
2023/03/10 06:34:17;;;;;;;21.03;8.17;;;1.20;99.90;;;;;;5001151;28;20395;-84
2023/03/10 06:36:48;;;;;;;20.52;8.85;;;1.10;99.90;;;;;;5006978;28;20112;-85
2023/03/10 06:39:17;;;;;;;20.42;8.10;;;1.10;99.90;;;;;;5005360;28;20065;-85
2023/03/10 06:41:42;;;;;;;21.67;9.10;;;1.20;99.90;;;;;;5003558;28;20200;-84
2023/03/10 06:44:10;;;;;;;21.20;8.93;;;1.20;99.90;;;;;;5012161;28;20159;-84
2023/03/10 06:46:37;;;;;;;18.52;7.72;;;1.20;99.90;;;;;;5008544;28;20046;-85
2023/03/10 06:49:02;;;;;;;17.80;7.72;;;1.20;99.90;;;;;;5007005;28;20042;-84
2023/03/10 06:51:28;;;;;;;17.70;7.83;;;1.20;99.90;;;;;;5005199;28;20172;-85
2023/03/10 06:53:56;;;;;;;17.00;7.73;;;1.20;99.90;;;;;;5000815;28;20045;-84
2023/03/10 06:56:22;;;;;;;16.17;7.82;;;1.20;99.90;;;;;;5010507;28;20241;-85
2023/03/10 06:58:51;;;;;;;17.07;7.60;;;1.20;99.90;;;;;;5005958;28;20064;-84
2023/03/10 07:01:28;;;;;;;15.00;6.47;;;1.20;99.90;;;;;;5002125;28;20093;-85
2023/03/10 07:03:54;;;;;;;;;;;1.20;99.90;;;;;;5010567;28;20038;-84
2023/03/10 07:06:21;;;;;;;14.70;6.60;;;1.20;99.90;;;;;;5010141;28;20027;-84
2023/03/10 07:08:46;;;;;;;15.93;6.80;;;1.30;99.90;;;;;;5017039;28;20037;-82
2023/03/10 07:11:13;;;;;;;16.70;7.60;;;1.30;99.90;;;;;;5003866;28;20175;-85
2023/03/10 07:13:38;;;;;;;15.80;7.07;;;1.30;99.90;;;;;;4990220;28;20294;-83
2023/03/10 07:16:05;;;;;;;17.40;7.17;;;1.30;99.90;;;;;;5010636;28;20045;-85
2023/03/10 07:18:31;;;;;;;17.73;7.60;;;1.30;99.90;;;;;;4999019;28;20098;-85
2023/03/10 07:20:57;;;;;;;15.15;6.32;;;1.30;99.90;;;;;;5011327;28;20057;-84
2023/03/10 07:23:24;;;;;;;14.40;6.35;;;1.30;99.90;;;;;;5004725;28;27011;-83
2023/03/10 07:25:55;;;;;;;16.73;7.25;;;1.20;99.90;;;;;;5002728;28;20052;-84
2023/03/10 07:28:25;;;;;;;16.80;7.53;;;1.30;99.90;;;;;;5012104;28;20482;-83
2023/03/10 07:30:52;;;;;;;14.50;6.57;;;1.30;99.90;;;;;;4985344;28;20501;-83
2023/03/10 07:33:18;;;;;;;15.18;6.88;;;1.40;99.90;;;;;;4989485;28;20056;-84
2023/03/10 07:35:44;;;;;;;19.60;8.02;;;1.40;99.90;;;;;;5023478;28;20125;-84
2023/03/10 07:38:13;;;;;;;19.98;8.38;;;1.30;99.90;;;;;;5005531;28;20037;-84
2023/03/10 07:40:41;;;;;;;21.05;8.48;;;1.40;99.90;;;;;;5000333;28;20046;-84
2023/03/10 07:43:07;;;;;;;16.60;6.93;;;1.40;99.90;;;;;;5003253;28;20088;-83
2023/03/10 07:45:36;;;;;;;22.73;9.02;;;1.40;99.90;;;;;;5007903;28;20042;-84
2023/03/10 07:48:02;;;;;;;17.40;7.57;;;1.40;99.90;;;;;;5011353;28;20065;-83
2023/03/10 07:50:33;;;;;;;17.03;8.73;;;1.40;99.90;;;;;;5024072;23;20094;-87
2023/03/10 07:53:04;;;;;;;21.67;8.75;;;1.40;99.90;;;;;;4972963;28;20030;-85
2023/03/10 07:55:35;;;;;;;17.73;8.23;;;1.40;99.90;;;;;;4978756;28;20042;-88
2023/03/10 07:58:28;;;;;;;;;;;;;;;;;;;;;
2023/03/10 08:01:06;;;;;;;19.63;8.48;;;1.40;99.90;;;;;;4991023;28;20061;-85
2023/03/10 08:03:38;;;;;;;17.52;8.00;;;1.40;99.90;;;;;;4988186;28;20042;-87
2023/03/10 08:06:29;;;;;;;19.48;9.07;;;1.40;99.90;;;;;;4976789;28;20084;-86
2023/03/10 08:09:00;;;;;;;18.20;7.85;;;1.40;99.90;;;;;;4972213;28;20088;-84
2023/03/10 08:11:33;;;;;;;17.63;8.15;;;1.40;99.90;;;;;;4990279;28;20050;-87
2023/03/10 08:14:17;;;;;;;;;;;;;;;;;;;;;
2023/03/10 08:16:58;;;;;;;14.85;7.43;;;1.40;99.90;;;;;;4989191;28;20563;-85
2023/03/10 08:19:39;;;;;;;22.45;9.35;;;1.40;99.90;;;;;;4976906;28;20030;-86
2023/03/10 08:22:30;;;;;;;19.65;8.40;;;1.50;99.90;;;;;;4975542;28;20034;-86
2023/03/10 08:29:02;;;;;;;;;;;;;;;;;;;;;
2023/03/10 08:32:14;;;;;;;16.65;7.25;;;1.60;99.90;;;;;;4928938;28;20035;-86
2023/03/10 08:34:54;;;;;;;17.45;7.20;;;1.50;99.90;;;;;;4917568;28;20089;-86
2023/03/10 08:37:27;;;;;;;17.00;7.00;;;1.50;99.90;;;;;;5006439;28;20124;-86
2023/03/10 08:40:06;;;;;;;18.65;7.65;;;1.50;99.90;;;;;;4992927;23;20107;-69
2023/03/10 08:42:35;;;;;;;20.42;8.00;;;1.50;99.90;;;;;;5019476;28;20056;-69
2023/03/10 08:45:02;;;;;;;16.27;7.40;;;1.50;99.90;;;;;;5006640;28;20060;-69
2023/03/10 08:47:27;;;;;;;16.45;7.47;;;1.50;99.90;;;;;;5015514;28;20037;-69
2023/03/10 08:49:53;;;;;;;17.73;7.87;;;1.50;99.90;;;;;;5013879;28;20211;-70
2023/03/10 08:52:18;;;;;;;17.17;7.77;;;1.50;99.90;;;;;;5009353;28;20045;-69
2023/03/10 08:54:44;;;;;;;21.30;8.33;;;1.50;99.90;;;;;;5018815;28;20110;-69
2023/03/10 08:57:10;;;;;;;17.83;8.30;;;1.50;99.90;;;;;;4995453;28;20050;-69
2023/03/10 08:59:35;;;;;;;16.10;8.33;;;1.50;99.90;;;;;;5017893;28;20189;-69
2023/03/10 09:02:01;;;;;;;16.80;7.63;;;1.60;99.90;;;;;;5005092;28;20239;-69
2023/03/10 09:04:26;;;;;;;15.20;7.43;;;1.60;99.90;;;;;;5014811;28;20214;-70
2023/03/10 09:06:52;;;;;;;17.17;8.50;;;1.60;99.90;;;;;;5018342;28;20345;-69
2023/03/10 09:09:18;;;;;;;18.47;8.23;;;1.60;99.90;;;;;;5020348;28;20060;-69
2023/03/10 09:11:43;;;;;;;17.93;8.77;;;1.50;99.90;;;;;;5017774;28;20038;-70
2023/03/10 09:14:09;;;;;;;23.53;8.73;;;1.60;99.90;;;;;;5016042;28;20038;-70
2023/03/10 09:16:36;;;;;;;16.15;7.70;;;1.60;99.90;;;;;;4995127;28;20045;-70
2023/03/10 09:19:02;;;;;;;21.08;8.05;;;1.60;99.90;;;;;;5014288;28;20739;-70
2023/03/10 09:21:30;;;;;;;18.40;7.70;;;1.50;99.90;;;;;;5022533;28;20414;-70
2023/03/10 09:23:56;;;;;;;17.25;8.02;;;1.60;99.90;;;;;;5002565;28;20052;-70
2023/03/10 09:26:21;;;;;;;19.43;8.40;;;1.50;99.90;;;;;;5019313;28;20454;-69
2023/03/10 09:28:49;;;;;;;19.13;7.83;;;1.60;99.90;;;;;;5013451;28;20029;-70
2023/03/10 09:31:21;;;;;;;19.23;9.27;;;1.60;99.90;;;;;;5018729;28;20041;-68
2023/03/10 09:33:47;;;;;;;23.80;9.88;;;1.60;99.90;;;;;;5019762;28;20129;-68
2023/03/10 09:36:13;;;;;;;23.23;9.52;;;1.60;99.90;;;;;;5034790;28;20061;-68
2023/03/10 09:38:40;;;;;;;25.57;9.83;;;1.60;99.90;;;;;;5010199;28;20045;-70
2023/03/10 09:41:46;;;;;;;20.00;9.55;;;1.60;99.90;;;;;;5015214;28;20038;-70
2023/03/10 09:44:35;;;;;;;19.58;8.70;;;1.60;99.90;;;;;;5027774;28;20232;-70
2023/03/10 09:47:29;;;;;;;20.92;8.68;;;1.60;99.90;;;;;;5016960;28;20045;-70
2023/03/10 09:50:05;;;;;;;24.95;10.77;;;1.50;99.90;;;;;;5008570;28;20049;-70
2023/03/10 09:52:43;;;;;;;18.77;8.63;;;1.50;99.90;;;;;;5013776;28;20041;-70
2023/03/10 09:55:34;;;;;;;18.23;8.75;;;1.50;99.90;;;;;;5007750;28;20228;-70
2023/03/10 09:57:59;;;;;;;18.45;7.53;;;1.50;99.90;;;;;;5022451;28;20552;-70
2023/03/10 10:00:33;;;;;;;19.87;8.47;;;1.50;99.90;;;;;;5020811;28;20045;-70
2023/03/10 10:03:24;;;;;;;19.65;8.93;;;1.50;99.90;;;;;;5020337;28;20414;-68
2023/03/10 10:05:54;;;;;;;19.27;9.25;;;1.50;99.90;;;;;;5013952;28;20129;-70
2023/03/10 10:09:06;;;;;;;30.70;10.88;;;1.50;99.90;;;;;;5017194;28;20395;-70
2023/03/10 10:11:35;;;;;;;21.27;9.50;;;1.40;99.90;;;;;;5011709;28;20436;-69
2023/03/10 10:14:15;;;;;;;20.80;9.00;;;1.40;99.90;;;;;;5019369;28;20418;-69
2023/03/10 10:17:09;;;;;;;21.33;9.63;;;1.50;99.90;;;;;;5017459;28;20049;-69
2023/03/10 10:19:36;;;;;;;17.70;8.23;;;1.40;99.90;;;;;;5023681;28;20487;-69
2023/03/10 10:22:24;;;;;;;19.90;8.77;;;1.40;99.90;;;;;;5016557;28;20056;-69
2023/03/10 10:25:08;;;;;;;16.30;7.88;;;1.50;99.90;;;;;;5006211;28;20045;-69
2023/03/10 10:27:38;;;;;;;15.57;6.70;;;1.40;99.90;;;;;;5023736;28;20102;-69
2023/03/10 10:30:25;;;;;;;17.58;7.70;;;1.40;99.90;;;;;;5023067;28;20213;-69
2023/03/10 10:33:08;;;;;;;19.65;7.78;;;1.50;99.90;;;;;;5025694;28;20491;-69
2023/03/10 10:35:37;;;;;;;19.58;8.23;;;1.40;99.90;;;;;;5036645;28;20396;-69
2023/03/10 10:38:06;;;;;;;19.60;8.18;;;1.40;99.90;;;;;;5024954;28;20060;-69
2023/03/10 10:40:35;;;;;;;17.67;7.97;;;1.40;99.90;;;;;;5016796;28;20041;-69
2023/03/10 10:43:04;;;;;;;19.60;8.95;;;1.40;99.90;;;;;;5026858;28;20383;-69
2023/03/10 10:45:38;;;;;;;15.07;7.70;;;1.40;99.90;;;;;;5025849;28;20041;-69
2023/03/10 10:48:40;;;;;;;22.35;8.60;;;1.50;99.90;;;;;;5019752;28;20037;-69
2023/03/10 10:51:23;;;;;;;20.30;9.25;;;1.40;99.90;;;;;;5017069;28;20140;-69
2023/03/10 10:53:49;;;;;;;18.45;7.97;;;1.50;99.90;;;;;;5024330;28;20462;-69
2023/03/10 10:56:16;;;;;;;20.20;8.15;;;1.50;99.90;;;;;;5024502;28;20057;-69
2023/03/10 10:58:45;;;;;;;22.55;9.40;;;1.50;99.90;;;;;;5019814;28;20041;-69
2023/03/10 11:01:13;;;;;;;20.05;9.27;;;1.50;99.90;;;;;;5017409;28;20046;-69
2023/03/10 11:03:46;;;;;;;21.63;9.82;;;1.50;99.90;;;;;;5024864;28;20037;-69
2023/03/10 11:06:25;;;;;;;20.95;9.60;;;1.50;99.90;;;;;;5022569;28;20415;-69
2023/03/10 11:09:12;;;;;;;20.20;9.10;;;1.50;99.90;;;;;;5013639;28;20041;-69
2023/03/10 11:12:02;;;;;;;21.38;9.88;;;1.50;99.90;;;;;;5013196;28;20053;-69
2023/03/10 11:14:51;;;;;;;19.50;9.70;;;1.50;99.90;;;;;;5016733;28;20053;-67
2023/03/10 11:17:30;;;;;;;19.92;9.85;;;1.50;99.90;;;;;;5020166;28;20041;-67
2023/03/10 11:20:00;;;;;;;18.70;8.90;;;1.60;99.90;;;;;;5024580;28;20552;-68
2023/03/10 11:22:45;;;;;;;20.50;8.85;;;1.60;99.90;;;;;;5014974;28;20455;-68
2023/03/10 11:25:35;;;;;;;18.73;8.48;;;1.60;99.90;;;;;;5018433;28;20854;-68
2023/03/10 11:28:16;;;;;;;19.40;8.82;;;1.60;99.90;;;;;;5037509;28;20158;-68
2023/03/10 11:30:53;;;;;;;19.52;8.23;;;1.70;99.90;;;;;;5018578;28;20057;-68
2023/03/10 11:33:31;;;;;;;21.08;9.57;;;1.70;99.90;;;;;;5020337;28;20041;-68
2023/03/10 11:36:09;;;;;;;19.83;9.25;;;1.70;99.90;;;;;;5022258;28;20053;-68
2023/03/10 11:38:43;;;;;;;20.70;9.43;;;1.80;99.90;;;;;;4998985;28;20059;-68
2023/03/10 11:41:22;;;;;;;20.77;9.55;;;1.80;99.90;;;;;;5012824;28;20128;-68
2023/03/10 11:43:51;;;;;;;19.20;8.95;;;1.80;99.90;;;;;;5018724;28;20065;-69
2023/03/10 11:46:38;;;;;;;24.92;9.50;;;1.90;99.90;;;;;;5016908;28;20221;-68
2023/03/10 11:49:18;;;;;;;23.73;9.10;;;1.90;99.90;;;;;;5018560;28;20045;-69
2023/03/10 11:51:54;;;;;;;20.05;9.13;;;1.90;99.90;;;;;;5032042;28;20049;-68
2023/03/10 11:54:38;;;;;;;20.02;8.63;;;2.00;99.90;;;;;;5021691;28;20208;-68
2023/03/10 11:57:14;;;;;;;21.52;9.35;;;1.90;99.90;;;;;;5019298;28;20045;-68
2023/03/10 11:59:52;;;;;;;22.75;10.13;;;1.90;99.90;;;;;;5021529;28;20104;-69
2023/03/10 12:02:25;;;;;;;24.45;11.10;;;2.00;99.90;;;;;;5020797;28;20059;-68
2023/03/10 12:05:02;;;;;;;21.63;9.60;;;2.00;99.90;;;;;;5017833;28;20042;-68
2023/03/10 12:07:37;;;;;;;21.17;9.88;;;2.00;99.90;;;;;;5020296;28;20217;-68
2023/03/10 12:10:16;;;;;;;22.00;9.95;;;2.00;99.90;;;;;;5003889;28;20065;-68
2023/03/10 12:12:45;;;;;;;19.60;10.02;;;2.00;99.90;;;;;;5013609;28;20132;-68
2023/03/10 12:15:35;;;;;;;21.52;9.95;;;2.00;99.90;;;;;;5019628;28;20053;-67
2023/03/10 12:18:06;;;;;;;19.85;9.52;;;2.00;99.90;;;;;;5018406;28;20053;-68
2023/03/10 12:20:33;;;;;;;24.60;10.10;;;1.90;99.90;;;;;;5018040;28;20049;-68
2023/03/10 12:23:08;;;;;;;21.05;9.82;;;2.00;99.90;;;;;;5021328;28;20263;-68
2023/03/10 12:25:36;;;;;;;21.27;10.18;;;2.00;99.90;;;;;;5018467;28;20405;-68
2023/03/10 12:28:11;;;;;;;20.90;9.30;;;2.00;99.90;;;;;;5017518;28;20049;-68
2023/03/10 12:30:47;;;;;;;21.70;10.20;;;2.00;99.90;;;;;;5029738;28;20079;-68
2023/03/10 12:33:32;;;;;;;21.85;10.27;;;2.00;99.90;;;;;;5023535;28;20123;-69
2023/03/10 12:36:31;;;;;;;21.20;9.70;;;2.00;99.90;;;;;;5021667;28;20060;-68
2023/03/10 12:38:58;;;;;;;20.42;9.68;;;2.00;99.90;;;;;;5021338;28;20047;-68
2023/03/10 12:41:27;;;;;;;17.38;9.30;;;2.00;99.90;;;;;;5018618;28;20084;-72
2023/03/10 12:44:05;;;;;;;22.10;9.98;;;2.00;99.90;;;;;;5019938;28;20072;-71
2023/03/10 12:46:46;;;;;;;21.25;10.18;;;2.00;99.90;;;;;;5018780;28;20124;-71
2023/03/10 12:49:30;;;;;;;19.75;9.95;;;2.00;99.90;;;;;;5017061;28;20088;-71
2023/03/10 12:52:21;;;;;;;20.67;9.25;;;2.10;99.90;;;;;;5012178;28;20053;-71
2023/03/10 12:55:20;;;;;;;24.48;9.95;;;2.10;99.90;;;;;;5004001;28;20076;-70
2023/03/10 12:58:03;;;;;;;21.08;9.65;;;2.10;99.90;;;;;;5011346;28;20057;-70
2023/03/10 13:00:54;;;;;;;19.73;10.27;;;2.10;99.90;;;;;;5022666;28;20042;-71
2023/03/10 13:03:32;;;;;;;19.65;9.10;;;2.10;99.90;;;;;;5017190;28;20436;-71
2023/03/10 13:06:17;;;;;;;22.35;10.43;;;2.10;99.90;;;;;;5027046;28;20157;-71
2023/03/10 13:09:00;;;;;;;24.55;10.57;;;2.10;99.90;;;;;;5018830;28;20493;-72
2023/03/10 13:11:44;;;;;;;19.42;8.40;;;2.20;99.90;;;;;;5024379;28;20044;-71
2023/03/10 13:14:31;;;;;;;22.85;9.35;;;2.10;99.90;;;;;;5018316;28;20045;-72
2023/03/10 13:16:59;;;;;;;21.63;10.63;;;2.10;99.90;;;;;;5035650;28;20511;-69
2023/03/10 13:19:28;;;;;;;20.00;9.27;;;2.20;99.90;;;;;;5022128;28;20471;-69